ARG1421 SAME-SAEZ
Flight info
| Callsign | ARG1421 |
|---|---|
| Flight time | 1h 20m |
| Altitude | 37000 |
| Route | KAMUV2C KAMUV UT670 SNT |
| Aircraft | B738/M-SDE2E3FGHIRWXY/LB1 |
Departure
| Time | 2026-04-27 17:53 |
|---|---|
| Airport | Governor Francisco Gabrielli International Airport (SAME) |
Arrival
| Time | 2026-04-27 19:13 |
|---|---|
| Airport | Ezeiza International Airport - Ministro Pistarini (SAEZ) |
| Time | Latitude | Longitude | Altitude | Speed | Heading |
|---|---|---|---|---|---|
| 2026-04-27 17:10 | -32.82917 | -68.79777 | 2418 ft | 0 kts | 271° |
| 2026-04-27 17:16 | -32.82918 | -68.79789 | 2369 ft | 0 kts | 271° |
| 2026-04-27 17:42 | -32.82918 | -68.79785 | 2385 ft | 3 kts | 271° |
| 2026-04-27 17:42 | -32.82918 | -68.79754 | 2382 ft | 3 kts | 271° |
| 2026-04-27 17:42 | -32.82918 | -68.79729 | 2382 ft | 4 kts | 258° |
| 2026-04-27 17:42 | -32.82908 | -68.79710 | 2381 ft | 4 kts | 183° |
| 2026-04-27 17:43 | -32.82883 | -68.79710 | 2384 ft | 3 kts | 180° |
| 2026-04-27 17:43 | -32.82879 | -68.79710 | 2385 ft | 1 kts | 181° |
| 2026-04-27 17:45 | -32.82880 | -68.79710 | 2385 ft | 1 kts | 181° |
| 2026-04-27 17:45 | -32.82894 | -68.79710 | 2387 ft | 3 kts | 181° |
| 2026-04-27 17:45 | -32.82926 | -68.79711 | 2385 ft | 6 kts | 181° |
| 2026-04-27 17:45 | -32.82976 | -68.79712 | 2387 ft | 8 kts | 181° |
| 2026-04-27 17:46 | -32.83015 | -68.79712 | 2386 ft | 0 kts | 173° |
| 2026-04-27 17:46 | -32.83022 | -68.79707 | 2387 ft | 2 kts | 146° |
| 2026-04-27 17:46 | -32.83024 | -68.79656 | 2388 ft | 14 kts | 77° |
| 2026-04-27 17:47 | -32.83006 | -68.79541 | 2388 ft | 9 kts | 117° |
| 2026-04-27 17:47 | -32.83035 | -68.79514 | 2389 ft | 6 kts | 163° |
| 2026-04-27 17:47 | -32.83119 | -68.79514 | 2387 ft | 10 kts | 181° |
| 2026-04-27 17:47 | -32.83191 | -68.79515 | 2391 ft | 11 kts | 181° |
| 2026-04-27 17:48 | -32.83277 | -68.79517 | 2386 ft | 14 kts | 181° |
| 2026-04-27 17:48 | -32.83380 | -68.79519 | 2389 ft | 16 kts | 181° |
| 2026-04-27 17:48 | -32.83428 | -68.79520 | 2387 ft | 8 kts | 181° |
| 2026-04-27 17:48 | -32.83493 | -68.79521 | 2388 ft | 11 kts | 181° |
| 2026-04-27 17:49 | -32.83577 | -68.79523 | 2388 ft | 13 kts | 181° |
| 2026-04-27 17:49 | -32.83678 | -68.79526 | 2390 ft | 16 kts | 180° |
| 2026-04-27 17:49 | -32.83794 | -68.79528 | 2389 ft | 17 kts | 181° |
| 2026-04-27 17:49 | -32.83885 | -68.79529 | 2390 ft | 11 kts | 181° |
| 2026-04-27 17:50 | -32.83962 | -68.79532 | 2389 ft | 11 kts | 180° |
| 2026-04-27 17:50 | -32.84121 | -68.79478 | 2387 ft | 14 kts | 161° |
| 2026-04-27 17:50 | -32.84219 | -68.79439 | 2393 ft | 15 kts | 161° |
| 2026-04-27 17:51 | -32.84307 | -68.79378 | 2391 ft | 14 kts | 147° |
| 2026-04-27 17:51 | -32.84388 | -68.79339 | 2392 ft | 6 kts | 192° |
| 2026-04-27 17:51 | -32.84411 | -68.79330 | 2392 ft | 2 kts | 120° |
| 2026-04-27 17:51 | -32.84404 | -68.79316 | 2393 ft | 3 kts | 41° |
| 2026-04-27 17:52 | -32.84395 | -68.79315 | 2391 ft | 2 kts | 1° |
| 2026-04-27 17:52 | -32.84291 | -68.79314 | 2389 ft | 49 kts | 1° |
| 2026-04-27 17:52 | -32.83665 | -68.79301 | 2389 ft | 128 kts | 1° |
| 2026-04-27 17:52 | -32.82598 | -68.79286 | 2665 ft | 169 kts | 1° |
| 2026-04-27 17:53 | -32.81419 | -68.79265 | 3591 ft | 169 kts | 1° |
| 2026-04-27 17:53 | -32.80258 | -68.79260 | 4773 ft | 168 kts | 0° |
| 2026-04-27 17:53 | -32.78989 | -68.79251 | 5333 ft | 198 kts | 1° |
| 2026-04-27 17:53 | -32.77520 | -68.79210 | 5586 ft | 225 kts | 7° |
| 2026-04-27 17:54 | -32.76046 | -68.78470 | 6109 ft | 241 kts | 40° |
| 2026-04-27 17:54 | -32.75092 | -68.76793 | 6788 ft | 257 kts | 69° |
| 2026-04-27 17:54 | -32.74675 | -68.74698 | 7612 ft | 265 kts | 78° |
| 2026-04-27 17:54 | -32.74379 | -68.72532 | 8428 ft | 273 kts | 80° |
| 2026-04-27 17:55 | -32.74070 | -68.70288 | 9365 ft | 277 kts | 79° |
| 2026-04-27 17:55 | -32.73734 | -68.68033 | 10240 ft | 282 kts | 79° |
| 2026-04-27 17:55 | -32.73375 | -68.65703 | 10899 ft | 292 kts | 79° |
| 2026-04-27 17:55 | -32.73021 | -68.63296 | 11639 ft | 299 kts | 84° |
| 2026-04-27 17:56 | -32.73205 | -68.60815 | 12308 ft | 310 kts | 102° |
| 2026-04-27 17:56 | -32.73700 | -68.58254 | 12524 ft | 336 kts | 104° |
| 2026-04-27 17:56 | -32.74287 | -68.55469 | 12816 ft | 358 kts | 105° |
| 2026-04-27 17:56 | -32.74900 | -68.52565 | 13458 ft | 366 kts | 104° |
| 2026-04-27 17:57 | -32.75512 | -68.49599 | 14160 ft | 372 kts | 104° |
| 2026-04-27 17:57 | -32.76122 | -68.46588 | 14856 ft | 377 kts | 104° |
| 2026-04-27 17:57 | -32.76729 | -68.43544 | 15579 ft | 380 kts | 104° |
| 2026-04-27 17:57 | -32.77336 | -68.40477 | 16270 ft | 385 kts | 105° |
| 2026-04-27 17:58 | -32.77953 | -68.37354 | 16975 ft | 389 kts | 105° |
| 2026-04-27 17:58 | -32.78573 | -68.34206 | 17658 ft | 394 kts | 105° |
| 2026-04-27 17:58 | -32.79201 | -68.31018 | 18331 ft | 399 kts | 106° |
| 2026-04-27 17:58 | -32.79829 | -68.27830 | 18897 ft | 403 kts | 106° |
| 2026-04-27 17:59 | -32.80471 | -68.24567 | 19498 ft | 407 kts | 106° |
| 2026-04-27 17:59 | -32.81119 | -68.21277 | 20088 ft | 411 kts | 106° |
| 2026-04-27 17:59 | -32.81775 | -68.17944 | 20667 ft | 415 kts | 107° |
| 2026-04-27 17:59 | -32.82440 | -68.14594 | 21231 ft | 420 kts | 107° |
| 2026-04-27 18:00 | -32.83109 | -68.11200 | 21772 ft | 424 kts | 106° |
| 2026-04-27 18:00 | -32.83783 | -68.07763 | 22313 ft | 428 kts | 106° |
| 2026-04-27 18:00 | -32.84458 | -68.04296 | 22844 ft | 433 kts | 106° |
| 2026-04-27 18:00 | -32.85135 | -68.00785 | 23353 ft | 437 kts | 106° |
| 2026-04-27 18:01 | -32.85814 | -67.97291 | 23820 ft | 442 kts | 106° |
| 2026-04-27 18:01 | -32.86514 | -67.93677 | 24270 ft | 445 kts | 106° |
| 2026-04-27 18:01 | -32.87200 | -67.90127 | 24726 ft | 448 kts | 106° |
| 2026-04-27 18:01 | -32.87898 | -67.86507 | 25189 ft | 450 kts | 106° |
| 2026-04-27 18:02 | -32.88598 | -67.82861 | 25627 ft | 453 kts | 106° |
| 2026-04-27 18:02 | -32.89302 | -67.79194 | 26045 ft | 457 kts | 106° |
| 2026-04-27 18:02 | -32.90013 | -67.75496 | 26489 ft | 459 kts | 106° |
| 2026-04-27 18:02 | -32.90706 | -67.71876 | 26908 ft | 462 kts | 105° |
| 2026-04-27 18:03 | -32.91417 | -67.68125 | 27325 ft | 464 kts | 106° |
| 2026-04-27 18:03 | -32.92134 | -67.64427 | 27707 ft | 467 kts | 106° |
| 2026-04-27 18:03 | -32.92875 | -67.60648 | 28093 ft | 470 kts | 106° |
| 2026-04-27 18:03 | -32.93624 | -67.56843 | 28485 ft | 473 kts | 106° |
| 2026-04-27 18:04 | -32.94372 | -67.53029 | 28880 ft | 475 kts | 106° |
| 2026-04-27 18:04 | -32.95123 | -67.49187 | 29266 ft | 478 kts | 106° |
| 2026-04-27 18:04 | -32.95875 | -67.45321 | 29643 ft | 480 kts | 106° |
| 2026-04-27 18:04 | -32.96620 | -67.41477 | 29997 ft | 483 kts | 106° |
| 2026-04-27 18:05 | -32.97376 | -67.37573 | 30317 ft | 485 kts | 106° |
| 2026-04-27 18:05 | -32.98132 | -67.33655 | 30617 ft | 487 kts | 106° |
| 2026-04-27 18:05 | -32.98892 | -67.29706 | 30922 ft | 489 kts | 106° |
| 2026-04-27 18:05 | -32.99652 | -67.25757 | 31225 ft | 491 kts | 106° |
| 2026-04-27 18:06 | -33.00414 | -67.21787 | 31511 ft | 492 kts | 106° |
| 2026-04-27 18:06 | -33.01177 | -67.17804 | 31789 ft | 494 kts | 106° |
| 2026-04-27 18:06 | -33.01942 | -67.13806 | 32123 ft | 494 kts | 106° |
| 2026-04-27 18:06 | -33.02701 | -67.09825 | 32535 ft | 492 kts | 106° |
| 2026-04-27 18:07 | -33.03459 | -67.05849 | 32969 ft | 490 kts | 106° |
| 2026-04-27 18:07 | -33.04201 | -67.01946 | 33342 ft | 489 kts | 106° |
| 2026-04-27 18:07 | -33.04950 | -66.98003 | 33671 ft | 489 kts | 106° |
| 2026-04-27 18:07 | -33.05703 | -66.94031 | 34020 ft | 489 kts | 106° |
| 2026-04-27 18:08 | -33.06450 | -66.90088 | 34341 ft | 488 kts | 106° |
| 2026-04-27 18:08 | -33.07196 | -66.86141 | 34617 ft | 489 kts | 106° |
| 2026-04-27 18:08 | -33.07944 | -66.82172 | 34877 ft | 489 kts | 106° |
| 2026-04-27 18:08 | -33.08689 | -66.78225 | 35130 ft | 490 kts | 106° |
| 2026-04-27 18:09 | -33.09437 | -66.74251 | 35398 ft | 490 kts | 106° |
| 2026-04-27 18:09 | -33.10182 | -66.70294 | 35664 ft | 490 kts | 106° |
| 2026-04-27 18:09 | -33.10917 | -66.66381 | 35925 ft | 490 kts | 106° |
| 2026-04-27 18:09 | -33.11660 | -66.62417 | 36191 ft | 490 kts | 106° |
| 2026-04-27 18:10 | -33.12401 | -66.58457 | 36440 ft | 490 kts | 105° |
| 2026-04-27 18:10 | -33.13143 | -66.54480 | 36694 ft | 490 kts | 105° |
| 2026-04-27 18:10 | -33.13882 | -66.50515 | 36962 ft | 490 kts | 105° |
| 2026-04-27 18:10 | -33.14619 | -66.46552 | 37129 ft | 492 kts | 105° |
| 2026-04-27 18:11 | -33.16097 | -66.38591 | 37132 ft | 495 kts | 105° |
| 2026-04-27 18:11 | -33.17570 | -66.30605 | 37111 ft | 489 kts | 105° |
| 2026-04-27 18:12 | -33.19027 | -66.22695 | 37125 ft | 488 kts | 105° |
| 2026-04-27 18:12 | -33.20478 | -66.14789 | 37099 ft | 488 kts | 105° |
| 2026-04-27 18:13 | -33.21932 | -66.06868 | 37096 ft | 487 kts | 105° |
| 2026-04-27 18:13 | -33.23367 | -65.99030 | 37084 ft | 487 kts | 105° |
| 2026-04-27 18:14 | -33.24809 | -65.91125 | 37069 ft | 488 kts | 105° |
| 2026-04-27 18:14 | -33.26252 | -65.83181 | 37072 ft | 489 kts | 105° |
| 2026-04-27 18:15 | -33.27681 | -65.75284 | 37068 ft | 490 kts | 105° |
| 2026-04-27 18:15 | -33.29117 | -65.67314 | 37067 ft | 491 kts | 105° |
| 2026-04-27 18:16 | -33.30552 | -65.59318 | 37073 ft | 492 kts | 105° |
| 2026-04-27 18:16 | -33.31986 | -65.51301 | 37078 ft | 494 kts | 105° |
| 2026-04-27 18:17 | -33.33417 | -65.43267 | 37071 ft | 495 kts | 105° |
| 2026-04-27 18:17 | -33.34834 | -65.35278 | 37080 ft | 495 kts | 105° |
| 2026-04-27 18:18 | -33.36256 | -65.27231 | 37080 ft | 495 kts | 104° |
| 2026-04-27 18:18 | -33.37673 | -65.19176 | 37087 ft | 494 kts | 104° |
| 2026-04-27 18:19 | -33.39085 | -65.11124 | 37092 ft | 494 kts | 104° |
| 2026-04-27 18:19 | -33.40482 | -65.03124 | 37087 ft | 494 kts | 104° |
| 2026-04-27 18:20 | -33.41880 | -64.95081 | 37099 ft | 494 kts | 104° |
| 2026-04-27 18:20 | -33.43275 | -64.87030 | 37093 ft | 494 kts | 104° |
| 2026-04-27 18:21 | -33.44654 | -64.79035 | 37102 ft | 494 kts | 104° |
| 2026-04-27 18:21 | -33.46037 | -64.70981 | 37109 ft | 494 kts | 104° |
| 2026-04-27 18:22 | -33.47415 | -64.62929 | 37114 ft | 494 kts | 104° |
| 2026-04-27 18:22 | -33.48790 | -64.54865 | 37117 ft | 494 kts | 104° |
| 2026-04-27 18:23 | -33.50117 | -64.46796 | 37118 ft | 495 kts | 104° |
| 2026-04-27 18:23 | -33.51420 | -64.38638 | 37124 ft | 495 kts | 103° |
| 2026-04-27 18:24 | -33.52695 | -64.30636 | 37126 ft | 496 kts | 103° |
| 2026-04-27 18:24 | -33.53987 | -64.22528 | 37129 ft | 496 kts | 103° |
| 2026-04-27 18:25 | -33.55272 | -64.14449 | 37127 ft | 496 kts | 103° |
| 2026-04-27 18:25 | -33.56561 | -64.06315 | 37135 ft | 497 kts | 103° |
| 2026-04-27 18:26 | -33.57845 | -63.98168 | 37135 ft | 497 kts | 103° |
| 2026-04-27 18:26 | -33.59124 | -63.90019 | 37134 ft | 498 kts | 103° |
| 2026-04-27 18:27 | -33.60390 | -63.81917 | 37139 ft | 498 kts | 103° |
| 2026-04-27 18:27 | -33.61658 | -63.73759 | 37144 ft | 498 kts | 103° |
| 2026-04-27 18:28 | -33.62924 | -63.65579 | 37139 ft | 498 kts | 103° |
| 2026-04-27 18:28 | -33.64185 | -63.57401 | 37141 ft | 498 kts | 103° |
| 2026-04-27 18:29 | -33.65439 | -63.49222 | 37143 ft | 499 kts | 103° |
| 2026-04-27 18:29 | -33.66680 | -63.41097 | 37143 ft | 499 kts | 103° |
| 2026-04-27 18:30 | -33.67924 | -63.32909 | 37144 ft | 499 kts | 103° |
| 2026-04-27 18:30 | -33.69165 | -63.24707 | 37147 ft | 499 kts | 103° |
| 2026-04-27 18:31 | -33.70399 | -63.16511 | 37139 ft | 499 kts | 103° |
| 2026-04-27 18:31 | -33.71619 | -63.08376 | 37151 ft | 499 kts | 103° |
| 2026-04-27 18:32 | -33.72846 | -63.00169 | 37150 ft | 499 kts | 103° |
| 2026-04-27 18:32 | -33.74103 | -62.91971 | 37141 ft | 499 kts | 103° |
| 2026-04-27 18:33 | -33.75364 | -62.83782 | 37154 ft | 499 kts | 103° |
| 2026-04-27 18:33 | -33.76617 | -62.75573 | 37144 ft | 499 kts | 103° |
| 2026-04-27 18:34 | -33.77854 | -62.67419 | 37151 ft | 500 kts | 103° |
| 2026-04-27 18:34 | -33.79095 | -62.59199 | 37146 ft | 500 kts | 103° |
| 2026-04-27 18:35 | -33.80330 | -62.50974 | 37152 ft | 500 kts | 103° |
| 2026-04-27 18:35 | -33.81561 | -62.42745 | 37149 ft | 500 kts | 103° |
| 2026-04-27 18:36 | -33.82780 | -62.34553 | 37149 ft | 501 kts | 103° |
| 2026-04-27 18:36 | -33.84001 | -62.26309 | 37150 ft | 501 kts | 103° |
| 2026-04-27 18:37 | -33.85217 | -62.18059 | 37149 ft | 501 kts | 103° |
| 2026-04-27 18:37 | -33.86430 | -62.09791 | 37148 ft | 501 kts | 103° |
| 2026-04-27 18:38 | -33.87629 | -62.01584 | 37148 ft | 502 kts | 103° |
| 2026-04-27 18:38 | -33.88831 | -61.93311 | 37148 ft | 502 kts | 103° |
| 2026-04-27 18:39 | -33.90026 | -61.85043 | 37151 ft | 502 kts | 103° |
| 2026-04-27 18:39 | -33.91218 | -61.76762 | 37148 ft | 502 kts | 103° |
| 2026-04-27 18:40 | -33.92399 | -61.68521 | 37150 ft | 502 kts | 103° |
| 2026-04-27 18:40 | -33.93585 | -61.60233 | 37152 ft | 503 kts | 103° |
| 2026-04-27 18:41 | -33.94767 | -61.51936 | 37151 ft | 503 kts | 103° |
| 2026-04-27 18:41 | -33.95946 | -61.43627 | 37146 ft | 503 kts | 103° |
| 2026-04-27 18:42 | -33.96920 | -61.36721 | 37153 ft | 503 kts | 103° |
| 2026-04-27 18:42 | -33.98264 | -61.27052 | 37154 ft | 504 kts | 103° |
| 2026-04-27 18:43 | -33.99414 | -61.18721 | 37136 ft | 504 kts | 102° |
| 2026-04-27 18:43 | -34.00557 | -61.10400 | 37142 ft | 504 kts | 102° |
| 2026-04-27 18:44 | -34.01705 | -61.02027 | 36527 ft | 510 kts | 103° |
| 2026-04-27 18:44 | -34.02279 | -60.97815 | 35988 ft | 507 kts | 103° |
| 2026-04-27 18:44 | -34.02840 | -60.93682 | 35359 ft | 507 kts | 103° |
| 2026-04-27 18:45 | -34.03409 | -60.89485 | 34723 ft | 507 kts | 103° |
| 2026-04-27 18:45 | -34.03976 | -60.85290 | 34070 ft | 507 kts | 103° |
| 2026-04-27 18:45 | -34.04538 | -60.81116 | 33556 ft | 503 kts | 103° |
| 2026-04-27 18:45 | -34.05095 | -60.76967 | 33045 ft | 498 kts | 104° |
| 2026-04-27 18:46 | -34.05644 | -60.72864 | 32581 ft | 493 kts | 104° |
| 2026-04-27 18:46 | -34.06186 | -60.68803 | 32114 ft | 489 kts | 104° |
| 2026-04-27 18:46 | -34.06725 | -60.64764 | 31659 ft | 484 kts | 104° |
| 2026-04-27 18:46 | -34.07250 | -60.60824 | 31204 ft | 481 kts | 104° |
| 2026-04-27 18:47 | -34.07778 | -60.56844 | 30765 ft | 477 kts | 104° |
| 2026-04-27 18:47 | -34.08301 | -60.52904 | 30310 ft | 473 kts | 104° |
| 2026-04-27 18:47 | -34.08818 | -60.48993 | 29807 ft | 470 kts | 104° |
| 2026-04-27 18:47 | -34.09322 | -60.45171 | 29313 ft | 466 kts | 104° |
| 2026-04-27 18:48 | -34.09826 | -60.41340 | 28860 ft | 461 kts | 104° |
| 2026-04-27 18:48 | -34.10324 | -60.37536 | 28385 ft | 456 kts | 104° |
| 2026-04-27 18:48 | -34.10817 | -60.33768 | 27937 ft | 452 kts | 104° |
| 2026-04-27 18:48 | -34.11304 | -60.30036 | 27468 ft | 448 kts | 104° |
| 2026-04-27 18:49 | -34.11785 | -60.26346 | 27024 ft | 444 kts | 104° |
| 2026-04-27 18:49 | -34.12262 | -60.22677 | 26580 ft | 441 kts | 104° |
| 2026-04-27 18:49 | -34.12734 | -60.19034 | 26137 ft | 437 kts | 104° |
| 2026-04-27 18:49 | -34.13202 | -60.15421 | 25704 ft | 434 kts | 104° |
| 2026-04-27 18:50 | -34.13660 | -60.11873 | 25270 ft | 431 kts | 104° |
| 2026-04-27 18:50 | -34.14118 | -60.08312 | 24836 ft | 429 kts | 104° |
| 2026-04-27 18:50 | -34.14574 | -60.04768 | 24405 ft | 426 kts | 104° |
| 2026-04-27 18:50 | -34.15024 | -60.01252 | 23958 ft | 424 kts | 104° |
| 2026-04-27 18:51 | -34.15474 | -59.97734 | 23483 ft | 422 kts | 104° |
| 2026-04-27 18:51 | -34.15921 | -59.94234 | 22993 ft | 420 kts | 103° |
| 2026-04-27 18:51 | -34.16361 | -59.90769 | 22544 ft | 416 kts | 103° |
| 2026-04-27 18:51 | -34.16797 | -59.87336 | 22110 ft | 412 kts | 103° |
| 2026-04-27 18:52 | -34.17228 | -59.83929 | 21676 ft | 409 kts | 103° |
| 2026-04-27 18:52 | -34.17647 | -59.80606 | 21244 ft | 406 kts | 103° |
| 2026-04-27 18:52 | -34.18072 | -59.77234 | 20837 ft | 403 kts | 103° |
| 2026-04-27 18:53 | -34.18905 | -59.70608 | 20006 ft | 397 kts | 103° |
| 2026-04-27 18:53 | -34.19319 | -59.67319 | 19591 ft | 395 kts | 103° |
| 2026-04-27 18:53 | -34.19730 | -59.64048 | 19182 ft | 392 kts | 103° |
| 2026-04-27 18:53 | -34.20134 | -59.60795 | 18765 ft | 391 kts | 103° |
| 2026-04-27 18:54 | -34.20535 | -59.57557 | 18337 ft | 389 kts | 103° |
| 2026-04-27 18:54 | -34.20931 | -59.54376 | 17886 ft | 387 kts | 103° |
| 2026-04-27 18:54 | -34.21326 | -59.51180 | 17450 ft | 384 kts | 102° |
| 2026-04-27 18:54 | -34.21718 | -59.48007 | 17043 ft | 381 kts | 103° |
| 2026-04-27 18:55 | -34.22331 | -59.44931 | 16630 ft | 372 kts | 114° |
| 2026-04-27 18:55 | -34.23253 | -59.42352 | 16352 ft | 362 kts | 123° |
| 2026-04-27 18:55 | -34.23393 | -59.42035 | 16330 ft | 361 kts | 124° |
| 2026-04-27 18:56 | -34.24162 | -59.40540 | 16180 ft | 354 kts | 131° |
| 2026-04-27 18:56 | -34.25714 | -59.38280 | 15927 ft | 347 kts | 136° |
| 2026-04-27 18:56 | -34.27125 | -59.35900 | 15673 ft | 349 kts | 127° |
| 2026-04-27 18:56 | -34.28373 | -59.33378 | 15459 ft | 352 kts | 125° |
| 2026-04-27 18:57 | -34.29608 | -59.30793 | 15213 ft | 355 kts | 125° |
| 2026-04-27 18:57 | -34.30858 | -59.28211 | 14969 ft | 355 kts | 126° |
| 2026-04-27 18:57 | -34.32118 | -59.25666 | 14727 ft | 352 kts | 126° |
| 2026-04-27 18:57 | -34.33395 | -59.23144 | 14486 ft | 350 kts | 127° |
| 2026-04-27 18:58 | -34.34678 | -59.20647 | 14245 ft | 348 kts | 127° |
| 2026-04-27 18:58 | -34.35525 | -59.19011 | 14095 ft | 347 kts | 127° |
| 2026-04-27 18:58 | -34.37213 | -59.15778 | 13775 ft | 345 kts | 127° |
| 2026-04-27 18:58 | -34.38492 | -59.13333 | 13521 ft | 343 kts | 127° |
| 2026-04-27 18:59 | -34.39778 | -59.10879 | 13251 ft | 342 kts | 127° |
| 2026-04-27 18:59 | -34.41053 | -59.08448 | 12989 ft | 341 kts | 127° |
| 2026-04-27 18:59 | -34.42323 | -59.06028 | 12736 ft | 340 kts | 127° |
| 2026-04-27 18:59 | -34.43589 | -59.03610 | 12473 ft | 339 kts | 127° |
| 2026-04-27 19:00 | -34.43918 | -59.02982 | 12407 ft | 339 kts | 127° |
| 2026-04-27 19:00 | -34.45138 | -59.00646 | 12165 ft | 338 kts | 127° |
| 2026-04-27 19:00 | -34.46392 | -58.98247 | 11920 ft | 336 kts | 127° |
| 2026-04-27 19:01 | -34.47641 | -58.95855 | 11670 ft | 335 kts | 127° |
| 2026-04-27 19:01 | -34.48883 | -58.93471 | 11419 ft | 334 kts | 127° |
| 2026-04-27 19:01 | -34.50117 | -58.91102 | 11175 ft | 332 kts | 127° |
| 2026-04-27 19:01 | -34.51347 | -58.88741 | 10921 ft | 331 kts | 127° |
| 2026-04-27 19:02 | -34.52574 | -58.86385 | 10679 ft | 330 kts | 127° |
| 2026-04-27 19:02 | -34.53795 | -58.84040 | 10450 ft | 327 kts | 127° |
| 2026-04-27 19:02 | -34.54966 | -58.81782 | 10358 ft | 315 kts | 127° |
| 2026-04-27 19:02 | -34.56104 | -58.79590 | 10231 ft | 306 kts | 127° |
| 2026-04-27 19:03 | -34.57222 | -58.77438 | 10097 ft | 298 kts | 127° |
| 2026-04-27 19:03 | -34.58318 | -58.75332 | 9861 ft | 294 kts | 127° |
| 2026-04-27 19:03 | -34.59407 | -58.73241 | 9564 ft | 291 kts | 127° |
| 2026-04-27 19:03 | -34.60121 | -58.71868 | 9381 ft | 290 kts | 127° |
| 2026-04-27 19:04 | -34.61552 | -58.69113 | 8996 ft | 288 kts | 126° |
| 2026-04-27 19:04 | -34.62598 | -58.67096 | 8734 ft | 285 kts | 126° |
| 2026-04-27 19:04 | -34.63668 | -58.65031 | 8475 ft | 284 kts | 126° |
| 2026-04-27 19:04 | -34.64702 | -58.63034 | 8196 ft | 282 kts | 126° |
| 2026-04-27 19:05 | -34.65743 | -58.61022 | 7922 ft | 281 kts | 125° |
| 2026-04-27 19:05 | -34.66777 | -58.59018 | 7646 ft | 279 kts | 125° |
| 2026-04-27 19:05 | -34.67805 | -58.57024 | 7389 ft | 278 kts | 125° |
| 2026-04-27 19:05 | -34.68824 | -58.55047 | 7114 ft | 276 kts | 125° |
| 2026-04-27 19:06 | -34.69841 | -58.53073 | 6855 ft | 274 kts | 125° |
| 2026-04-27 19:06 | -34.70854 | -58.51113 | 6623 ft | 272 kts | 125° |
| 2026-04-27 19:06 | -34.71854 | -58.49171 | 6334 ft | 271 kts | 125° |
| 2026-04-27 19:06 | -34.72838 | -58.47259 | 6057 ft | 271 kts | 125° |
| 2026-04-27 19:07 | -34.73835 | -58.45324 | 5753 ft | 270 kts | 125° |
| 2026-04-27 19:07 | -34.74827 | -58.43395 | 5463 ft | 269 kts | 126° |
| 2026-04-27 19:07 | -34.75817 | -58.41476 | 5155 ft | 269 kts | 126° |
| 2026-04-27 19:07 | -34.76809 | -58.39551 | 4855 ft | 268 kts | 126° |
| 2026-04-27 19:08 | -34.77798 | -58.37629 | 4559 ft | 267 kts | 126° |
| 2026-04-27 19:08 | -34.78769 | -58.35738 | 4401 ft | 261 kts | 126° |
| 2026-04-27 19:08 | -34.79709 | -58.33912 | 4262 ft | 254 kts | 127° |
| 2026-04-27 19:08 | -34.80929 | -58.32482 | 4176 ft | 235 kts | 156° |
| 2026-04-27 19:09 | -34.82418 | -58.32008 | 4066 ft | 213 kts | 184° |
| 2026-04-27 19:09 | -34.83785 | -58.32348 | 3916 ft | 194 kts | 209° |
| 2026-04-27 19:09 | -34.84678 | -58.33568 | 3219 ft | 203 kts | 248° |
| 2026-04-27 19:09 | -34.84974 | -58.35256 | 2737 ft | 200 kts | 261° |
| 2026-04-27 19:10 | -34.85064 | -58.36875 | 2501 ft | 185 kts | 272° |
| 2026-04-27 19:10 | -34.84893 | -58.38398 | 2227 ft | 176 kts | 276° |
| 2026-04-27 19:10 | -34.84675 | -58.39809 | 2028 ft | 165 kts | 278° |
| 2026-04-27 19:10 | -34.84523 | -58.40692 | 1901 ft | 157 kts | 278° |
| 2026-04-27 19:11 | -34.84233 | -58.42349 | 1634 ft | 144 kts | 279° |
| 2026-04-27 19:11 | -34.84028 | -58.43493 | 1464 ft | 135 kts | 278° |
| 2026-04-27 19:11 | -34.83830 | -58.44600 | 1287 ft | 133 kts | 278° |
| 2026-04-27 19:11 | -34.83637 | -58.45682 | 1102 ft | 128 kts | 277° |
| 2026-04-27 19:12 | -34.83450 | -58.46745 | 969 ft | 132 kts | 277° |
| 2026-04-27 19:12 | -34.83249 | -58.47856 | 780 ft | 135 kts | 279° |
| 2026-04-27 19:12 | -34.83044 | -58.48946 | 598 ft | 131 kts | 280° |
| 2026-04-27 19:12 | -34.82872 | -58.49997 | 407 ft | 124 kts | 281° |
| 2026-04-27 19:13 | -34.82702 | -58.50987 | 245 ft | 118 kts | 284° |
| 2026-04-27 19:13 | -34.82492 | -58.52029 | 147 ft | 124 kts | 280° |
| 2026-04-27 19:13 | -34.82326 | -58.53007 | 85 ft | 106 kts | 280° |
| 2026-04-27 19:13 | -34.82203 | -58.53688 | 80 ft | 49 kts | 283° |
| 2026-04-27 19:14 | -34.82157 | -58.53922 | 80 ft | 25 kts | 282° |
| 2026-04-27 19:14 | -34.82123 | -58.54119 | 84 ft | 23 kts | 281° |
| 2026-04-27 19:14 | -34.82091 | -58.54306 | 84 ft | 22 kts | 282° |
| 2026-04-27 19:14 | -34.82059 | -58.54484 | 80 ft | 18 kts | 282° |
| 2026-04-27 19:15 | -34.81998 | -58.54538 | 80 ft | 11 kts | 21° |
| 2026-04-27 19:15 | -34.81951 | -58.54501 | 72 ft | 7 kts | 34° |
| 2026-04-27 19:15 | -34.81949 | -58.54499 | 73 ft | 0 kts | 34° |
| 2026-04-27 19:17 | -34.81945 | -58.54495 | 74 ft | 3 kts | 34° |
| 2026-04-27 19:17 | -34.81899 | -58.54457 | 76 ft | 13 kts | 35° |
| 2026-04-27 19:18 | -34.81818 | -58.54390 | 68 ft | 13 kts | 33° |
| 2026-04-27 19:18 | -34.81771 | -58.54318 | 72 ft | 10 kts | 86° |
| 2026-04-27 19:18 | -34.81778 | -58.54231 | 70 ft | 10 kts | 94° |
| 2026-04-27 19:18 | -34.81787 | -58.54157 | 72 ft | 8 kts | 101° |
| 2026-04-27 19:19 | -34.81792 | -58.54088 | 74 ft | 8 kts | 88° |
| 2026-04-27 19:19 | -34.81780 | -58.54018 | 73 ft | 9 kts | 68° |
| 2026-04-27 19:19 | -34.81749 | -58.53956 | 72 ft | 7 kts | 47° |
| 2026-04-27 19:19 | -34.81731 | -58.53953 | 71 ft | 4 kts | 337° |
| 2026-04-27 19:20 | -34.81695 | -58.53996 | 66 ft | 8 kts | 315° |
| 2026-04-27 19:20 | -34.81669 | -58.54028 | 68 ft | 3 kts | 315° |
| 2026-04-27 19:20 | -34.81659 | -58.54041 | 70 ft | 1 kts | 316° |
| 2026-04-27 19:20 | -34.81658 | -58.54041 | 70 ft | 0 kts | 316° |